Time;durP1;ratioP1;P1;durP2;ratioP2;P2;SDS_P1;SDS_P2;PMS_P1;PMS_P2;Temp;Humidity;BMP_temperature;BMP_pressure;BME280_temperature;BME280_humidity;BME280_pressure;Samples;Min_cycle;Max_cycle;Signal;HPM_P1;HPM_P2
2022/11/22 00:00:38;;;;;;;52.90;26.88;;;;;;;;;;5045330;28;20498;-74
2022/11/22 00:03:04;;;;;;;50.92;25.40;;;;;;;;;;5034058;28;20030;-76
2022/11/22 00:05:30;;;;;;;48.17;25.80;;;;;;;;;;5032544;28;20052;-76
2022/11/22 00:07:56;;;;;;;50.60;26.10;;;;;;;;;;5034441;28;20078;-76
2022/11/22 00:10:22;;;;;;;53.58;27.73;;;;;;;;;;5034234;28;20075;-76
2022/11/22 00:12:48;;;;;;;54.15;28.33;;;;;;;;;;5032442;28;20434;-76
2022/11/22 00:15:14;;;;;;;52.33;26.95;;;;;;;;;;5034572;28;20017;-75
2022/11/22 00:17:40;;;;;;;55.85;27.40;;;;;;;;;;5032846;28;20455;-75
2022/11/22 00:20:07;;;;;;;53.55;27.88;;;;;;;;;;5033478;28;20382;-75
2022/11/22 00:22:33;;;;;;;52.58;27.70;;;;;;;;;;5033354;28;20101;-76
2022/11/22 00:24:59;;;;;;;55.85;28.65;;;;;;;;;;5033350;28;20116;-77
2022/11/22 00:27:25;;;;;;;58.13;29.83;;;;;;;;;;5032690;28;20297;-76
2022/11/22 00:29:51;;;;;;;57.95;29.67;;;;;;;;;;5032723;28;20441;-76
2022/11/22 00:32:17;;;;;;;52.63;29.08;;;;;;;;;;5033795;28;20041;-74
2022/11/22 00:34:43;;;;;;;60.38;29.77;;;;;;;;;;5032457;28;20061;-75
2022/11/22 00:37:09;;;;;;;61.75;29.40;;;;;;;;;;5033033;28;20052;-75
2022/11/22 00:39:35;;;;;;;58.03;29.95;;;;;;;;;;5033976;28;20022;-75
2022/11/22 00:42:01;;;;;;;60.95;30.80;;;;;;;;;;5033251;28;20466;-75
2022/11/22 00:44:27;;;;;;;56.83;29.63;;;;;;;;;;5032951;28;20087;-75
2022/11/22 00:46:53;;;;;;;60.55;30.23;;;;;;;;;;5031865;28;20036;-76
2022/11/22 00:49:19;;;;;;;57.83;30.90;;;;;;;;;;5034368;28;20030;-75
2022/11/22 00:51:45;;;;;;;61.88;31.63;;;;;;;;;;5038707;28;20026;-75
2022/11/22 00:54:11;;;;;;;64.13;31.67;;;;;;;;;;5042771;28;20017;-72
2022/11/22 00:56:36;;;;;;;66.57;31.85;;;;;;;;;;5057246;28;20030;-72
2022/11/22 00:59:02;;;;;;;57.55;29.73;;;;;;;;;;5057773;28;20080;-72
2022/11/22 01:01:28;;;;;;;58.72;31.55;;;;;;;;;;5053381;28;20033;-72
2022/11/22 01:03:54;;;;;;;59.30;31.17;;;;;;;;;;5035093;28;20537;-74
2022/11/22 01:06:20;;;;;;;60.90;30.77;;;;;;;;;;5031782;28;20032;-75
2022/11/22 01:08:47;;;;;;;58.22;30.00;;;;;;;;;;5034473;28;20052;-76
2022/11/22 01:11:14;;;;;;;65.20;31.02;;;;;;;;;;5034198;28;20053;-75
2022/11/22 01:13:40;;;;;;;64.05;31.55;;;;;;;;;;5034470;28;20509;-75
2022/11/22 01:16:07;;;;;;;59.42;29.58;;;;;;;;;;5034125;28;20029;-76
2022/11/22 01:18:34;;;;;;;66.15;31.73;;;;;;;;;;5035596;28;20021;-75
2022/11/22 01:20:59;;;;;;;66.60;31.85;;;;;;;;;;5037011;28;20029;-75
2022/11/22 01:23:26;;;;;;;66.38;34.03;;;;;;;;;;5036820;28;20517;-75
2022/11/22 01:25:51;;;;;;;65.97;31.95;;;;;;;;;;5036958;28;20061;-76
2022/11/22 01:28:18;;;;;;;65.32;30.75;;;;;;;;;;5033544;28;20033;-76
2022/11/22 01:30:44;;;;;;;62.08;31.15;;;;;;;;;;5032330;28;20052;-75
2022/11/22 01:33:10;;;;;;;64.28;31.80;;;;;;;;;;5032443;28;20478;-76
2022/11/22 01:35:36;;;;;;;62.85;31.25;;;;;;;;;;5031744;28;20479;-76
2022/11/22 01:38:02;;;;;;;61.55;30.67;;;;;;;;;;5032503;28;20025;-76
2022/11/22 01:40:28;;;;;;;60.45;30.65;;;;;;;;;;5032392;28;20087;-76
2022/11/22 01:42:56;;;;;;;62.47;32.97;;;;;;;;;;5032365;28;20034;-77
2022/11/22 01:45:37;;;;;;;61.60;31.42;;;;;;;;;;5030618;28;20033;-75
2022/11/22 01:48:14;;;;;;;62.38;31.55;;;;;;;;;;5032299;28;20029;-76
2022/11/22 01:50:42;;;;;;;63.92;31.23;;;;;;;;;;5032277;28;20084;-77
2022/11/22 01:53:16;;;;;;;64.78;31.35;;;;;;;;;;5032149;28;20065;-77
2022/11/22 01:55:42;;;;;;;70.00;32.20;;;;;;;;;;5032099;28;20378;-74
2022/11/22 01:58:08;;;;;;;65.07;33.45;;;;;;;;;;5031947;28;20021;-74
2022/11/22 02:00:35;;;;;;;67.28;32.47;;;;;;;;;;5032070;28;20433;-75
2022/11/22 02:03:02;;;;;;;65.55;32.38;;;;;;;;;;5030312;28;20101;-76
2022/11/22 02:05:30;;;;;;;64.65;31.75;;;;;;;;;;5031278;28;20068;-76
2022/11/22 02:07:59;;;;;;;70.57;32.03;;;;;;;;;;5032061;28;20363;-75
2022/11/22 02:10:27;;;;;;;70.38;34.10;;;;;;;;;;5032105;28;20447;-76
2022/11/22 02:12:54;;;;;;;69.43;32.95;;;;;;;;;;5032102;28;20351;-76
2022/11/22 02:15:19;;;;;;;70.47;35.65;;;;;;;;;;5031510;28;20109;-74
2022/11/22 02:17:45;;;;;;;72.00;34.05;;;;;;;;;;5031680;28;20061;-77
2022/11/22 02:20:12;;;;;;;70.40;32.88;;;;;;;;;;5031659;28;20032;-77
2022/11/22 02:22:47;;;;;;;71.57;34.33;;;;;;;;;;5031581;28;20521;-76
2022/11/22 02:25:32;;;;;;;68.25;34.28;;;;;;;;;;5031521;28;20487;-75
2022/11/22 02:27:58;;;;;;;68.85;34.85;;;;;;;;;;5031864;28;20510;-77
2022/11/22 02:30:24;;;;;;;71.88;34.42;;;;;;;;;;5031564;28;20137;-76
2022/11/22 02:32:50;;;;;;;72.53;35.50;;;;;;;;;;5030639;28;20099;-76
2022/11/22 02:35:18;;;;;;;74.90;35.55;;;;;;;;;;5031423;28;20052;-76
2022/11/22 02:37:44;;;;;;;72.88;35.30;;;;;;;;;;5031443;28;20396;-75
2022/11/22 02:40:12;;;;;;;71.45;35.17;;;;;;;;;;5031528;28;20516;-75
2022/11/22 02:42:39;;;;;;;72.82;36.85;;;;;;;;;;5035131;28;20164;-76
2022/11/22 02:45:05;;;;;;;76.10;37.97;;;;;;;;;;5035361;28;20086;-77
2022/11/22 02:47:31;;;;;;;69.80;34.80;;;;;;;;;;5035072;28;20036;-75
2022/11/22 02:49:57;;;;;;;73.03;35.60;;;;;;;;;;5035766;28;20029;-75
2022/11/22 02:52:23;;;;;;;77.97;37.20;;;;;;;;;;5032900;28;20030;-76
2022/11/22 02:54:49;;;;;;;74.32;36.75;;;;;;;;;;5035067;28;20036;-75
2022/11/22 02:57:15;;;;;;;76.32;37.47;;;;;;;;;;5034483;28;20026;-74
2022/11/22 02:59:41;;;;;;;83.30;38.20;;;;;;;;;;5035375;28;20033;-76
2022/11/22 03:02:07;;;;;;;78.90;37.60;;;;;;;;;;5034474;28;20304;-76
2022/11/22 03:04:33;;;;;;;75.18;36.15;;;;;;;;;;5034653;28;20105;-76
2022/11/22 03:07:00;;;;;;;72.50;36.00;;;;;;;;;;5033982;28;20483;-76
2022/11/22 03:09:27;;;;;;;75.03;36.53;;;;;;;;;;5034565;28;20096;-76
2022/11/22 03:11:53;;;;;;;74.50;37.25;;;;;;;;;;5034723;28;20017;-75
2022/11/22 03:14:19;;;;;;;72.45;36.38;;;;;;;;;;5034364;28;20470;-77
2022/11/22 03:16:46;;;;;;;71.65;36.28;;;;;;;;;;5034161;28;20386;-76
2022/11/22 03:19:12;;;;;;;71.35;36.47;;;;;;;;;;5033672;28;20425;-75
2022/11/22 03:21:39;;;;;;;71.13;36.13;;;;;;;;;;5034737;28;20104;-75
2022/11/22 03:24:06;;;;;;;74.53;36.90;;;;;;;;;;5033785;28;20029;-79
2022/11/22 03:26:32;;;;;;;80.43;39.65;;;;;;;;;;5037401;28;20029;-78
2022/11/22 03:28:58;;;;;;;73.65;37.42;;;;;;;;;;5035467;28;20021;-78
2022/11/22 03:31:24;;;;;;;75.53;37.05;;;;;;;;;;5036079;28;20370;-78
2022/11/22 03:33:50;;;;;;;67.90;34.95;;;;;;;;;;5035626;28;20036;-77
2022/11/22 03:36:16;;;;;;;71.45;35.72;;;;;;;;;;5034805;28;20504;-77
2022/11/22 03:38:42;;;;;;;65.40;33.40;;;;;;;;;;5036543;28;20079;-78
2022/11/22 03:41:08;;;;;;;62.75;32.85;;;;;;;;;;5038452;28;20478;-78
2022/11/22 03:43:34;;;;;;;67.72;35.58;;;;;;;;;;5037161;28;20033;-77
2022/11/22 03:46:00;;;;;;;70.90;36.08;;;;;;;;;;5035472;28;20077;-77
2022/11/22 03:48:26;;;;;;;65.38;34.60;;;;;;;;;;5036186;28;20140;-77
2022/11/22 03:50:52;;;;;;;60.72;32.78;;;;;;;;;;5034516;28;20022;-76
2022/11/22 03:53:18;;;;;;;68.38;36.17;;;;;;;;;;5034277;28;20542;-79
2022/11/22 03:55:44;;;;;;;66.22;34.72;;;;;;;;;;5037010;28;20548;-77
2022/11/22 03:58:09;;;;;;;63.42;33.17;;;;;;;;;;5035029;28;20481;-75
2022/11/22 04:00:35;;;;;;;65.88;34.50;;;;;;;;;;5033897;28;20113;-75
2022/11/22 04:03:01;;;;;;;68.22;33.88;;;;;;;;;;5033856;28;20026;-74
2022/11/22 04:05:27;;;;;;;61.67;33.83;;;;;;;;;;5033524;28;20014;-74
2022/11/22 04:07:56;;;;;;;62.55;33.25;;;;;;;;;;5033792;28;20022;-74
2022/11/22 04:10:25;;;;;;;60.80;32.08;;;;;;;;;;5033578;28;20478;-74
2022/11/22 04:12:51;;;;;;;67.03;34.97;;;;;;;;;;5033562;28;20103;-74
2022/11/22 04:15:17;;;;;;;65.97;34.40;;;;;;;;;;5033821;28;20493;-75
2022/11/22 04:17:44;;;;;;;64.22;33.45;;;;;;;;;;5037462;28;20040;-74
2022/11/22 04:22:58;;;;;;;66.10;34.35;;;;;;;;;;5037659;28;20037;-73
2022/11/22 04:25:25;;;;;;;64.35;33.85;;;;;;;;;;5040491;28;20057;-74
2022/11/22 04:27:51;;;;;;;69.97;34.08;;;;;;;;;;5041222;28;20463;-72
2022/11/22 04:30:17;;;;;;;64.43;34.35;;;;;;;;;;5040739;28;20064;-74
2022/11/22 04:32:46;;;;;;;68.95;34.28;;;;;;;;;;5039159;28;20108;-74
2022/11/22 04:35:17;;;;;;;68.07;34.95;;;;;;;;;;5047676;28;20032;-74
2022/11/22 04:37:43;;;;;;;70.03;34.78;;;;;;;;;;5044620;28;20025;-74
2022/11/22 04:40:09;;;;;;;67.55;33.97;;;;;;;;;;5040717;28;20036;-75
2022/11/22 04:45:20;;;;;;;66.45;34.58;;;;;;;;;;5032578;28;20037;-76
2022/11/22 04:47:58;;;;;;;69.03;34.65;;;;;;;;;;5031531;28;20029;-74
2022/11/22 04:53:09;;;;;;;;;;;;;;;;;;5048265;28;20045;-74
2022/11/22 04:55:35;;;;;;;64.32;33.38;;;;;;;;;;5033449;28;19905;-74
2022/11/22 04:58:01;;;;;;;65.55;34.22;;;;;;;;;;5031364;28;20026;-74
2022/11/22 05:00:31;;;;;;;71.80;35.63;;;;;;;;;;5034962;28;20032;-73
2022/11/22 05:02:57;;;;;;;68.28;35.38;;;;;;;;;;5033260;28;20406;-75
2022/11/22 05:05:24;;;;;;;63.80;34.67;;;;;;;;;;5031528;28;20026;-74
2022/11/22 05:07:50;;;;;;;72.28;35.75;;;;;;;;;;5031120;28;20392;-75
2022/11/22 05:10:16;;;;;;;71.25;36.10;;;;;;;;;;5032409;28;20025;-74
2022/11/22 05:12:42;;;;;;;66.50;35.33;;;;;;;;;;5032120;28;20029;-75
2022/11/22 05:15:09;;;;;;;68.22;35.10;;;;;;;;;;5032270;28;20036;-74
2022/11/22 05:17:35;;;;;;;72.55;36.60;;;;;;;;;;5031858;28;20049;-74
2022/11/22 05:20:01;;;;;;;70.68;36.85;;;;;;;;;;5032339;28;20143;-75
2022/11/22 05:25:12;;;;;;;;;;;;;;;;;;5033485;28;20550;-77
2022/11/22 05:27:38;;;;;;;71.53;35.10;;;;;;;;;;5030036;28;19940;-76
2022/11/22 05:30:05;;;;;;;69.13;36.58;;;;;;;;;;5032147;28;20451;-74
2022/11/22 05:32:31;;;;;;;72.05;36.53;;;;;;;;;;5031937;28;20030;-74
2022/11/22 05:34:57;;;;;;;68.10;36.03;;;;;;;;;;5032313;28;20371;-74
2022/11/22 05:37:23;;;;;;;76.00;37.45;;;;;;;;;;5033008;28;20033;-74
2022/11/22 05:39:49;;;;;;;72.93;36.25;;;;;;;;;;5033040;28;20048;-76
2022/11/22 05:42:15;;;;;;;67.05;34.97;;;;;;;;;;5041507;28;20022;-74
2022/11/22 05:44:41;;;;;;;68.20;37.05;;;;;;;;;;5060442;23;20061;-73
2022/11/22 05:47:08;;;;;;;68.85;36.78;;;;;;;;;;5033298;28;20045;-72
2022/11/22 05:49:34;;;;;;;67.95;36.42;;;;;;;;;;5028392;28;20021;-73
2022/11/22 05:52:00;;;;;;;72.13;36.45;;;;;;;;;;5036631;28;20056;-75
2022/11/22 05:54:26;;;;;;;76.82;38.05;;;;;;;;;;5024577;28;20030;-74
2022/11/22 05:56:52;;;;;;;71.50;36.63;;;;;;;;;;5018095;28;20095;-73
2022/11/22 05:59:19;;;;;;;69.82;38.17;;;;;;;;;;5041110;28;20057;-74
2022/11/22 06:01:44;;;;;;;69.10;36.40;;;;;;;;;;5044696;28;20028;-74
2022/11/22 06:04:10;;;;;;;68.93;37.92;;;;;;;;;;5042423;28;20022;-73
2022/11/22 06:06:36;;;;;;;71.50;37.22;;;;;;;;;;5041495;28;20026;-74
2022/11/22 06:09:03;;;;;;;66.82;35.92;;;;;;;;;;5039776;28;20026;-75
2022/11/22 06:11:29;;;;;;;66.22;36.00;;;;;;;;;;5026221;28;20049;-75
2022/11/22 06:13:59;;;;;;;66.95;35.67;;;;;;;;;;5018167;28;20076;-75
2022/11/22 06:16:25;;;;;;;71.95;37.40;;;;;;;;;;5039465;28;20037;-74
2022/11/22 06:18:53;;;;;;;70.28;37.22;;;;;;;;;;5041161;28;20032;-75
2022/11/22 06:21:23;;;;;;;72.15;37.53;;;;;;;;;;5041127;28;20033;-76
2022/11/22 06:23:49;;;;;;;69.25;36.60;;;;;;;;;;5042976;28;20053;-75
2022/11/22 06:26:16;;;;;;;66.03;35.92;;;;;;;;;;5049013;28;20528;-74
2022/11/22 06:28:43;;;;;;;73.15;37.67;;;;;;;;;;5039940;28;20408;-74
2022/11/22 06:31:16;;;;;;;72.15;36.72;;;;;;;;;;5037845;28;20029;-74
2022/11/22 06:33:42;;;;;;;69.07;38.80;;;;;;;;;;5039365;28;20034;-74
2022/11/22 06:36:12;;;;;;;69.68;37.63;;;;;;;;;;5039360;28;20065;-75
2022/11/22 06:38:39;;;;;;;70.05;38.35;;;;;;;;;;5038363;28;20029;-74
2022/11/22 06:41:06;;;;;;;69.72;38.10;;;;;;;;;;5040148;28;20061;-76
2022/11/22 06:43:32;;;;;;;71.10;36.63;;;;;;;;;;5039093;28;20429;-75
2022/11/22 06:45:59;;;;;;;72.00;38.08;;;;;;;;;;5040360;28;20041;-76
2022/11/22 06:48:26;;;;;;;77.88;38.72;;;;;;;;;;5033058;28;20051;-75
2022/11/22 06:50:52;;;;;;;77.13;38.20;;;;;;;;;;5047444;28;20025;-77
2022/11/22 06:53:18;;;;;;;75.05;37.72;;;;;;;;;;5038727;28;20501;-75
2022/11/22 06:55:44;;;;;;;74.40;39.05;;;;;;;;;;5018470;28;20021;-77
2022/11/22 06:58:10;;;;;;;73.53;38.20;;;;;;;;;;5019880;28;20035;-75
2022/11/22 07:00:36;;;;;;;71.93;38.28;;;;;;;;;;5038424;28;20037;-74
2022/11/22 07:03:01;;;;;;;71.45;38.63;;;;;;;;;;5037464;28;20029;-75
2022/11/22 07:05:27;;;;;;;78.88;40.38;;;;;;;;;;5051183;28;20097;-77
2022/11/22 07:07:53;;;;;;;78.60;39.97;;;;;;;;;;5055267;28;20036;-74
2022/11/22 07:10:19;;;;;;;76.82;40.10;;;;;;;;;;5037415;28;20096;-75
2022/11/22 07:12:45;;;;;;;73.25;38.67;;;;;;;;;;5049276;28;20037;-74
2022/11/22 07:15:11;;;;;;;72.72;39.17;;;;;;;;;;5046562;28;20037;-74
2022/11/22 07:17:37;;;;;;;73.38;39.80;;;;;;;;;;5028876;28;20021;-76
2022/11/22 07:20:03;;;;;;;74.32;39.45;;;;;;;;;;5047356;28;20041;-76
2022/11/22 07:22:29;;;;;;;72.93;39.45;;;;;;;;;;5049643;28;20030;-76
2022/11/22 07:24:55;;;;;;;77.20;39.33;;;;;;;;;;5046126;28;20033;-75
2022/11/22 07:27:21;;;;;;;79.68;40.38;;;;;;;;;;5036116;28;20029;-75
2022/11/22 07:29:47;;;;;;;74.30;38.50;;;;;;;;;;5036545;28;20504;-76
2022/11/22 07:32:13;;;;;;;75.68;41.58;;;;;;;;;;5037510;28;20536;-74
2022/11/22 07:34:39;;;;;;;75.85;39.83;;;;;;;;;;5037746;28;20052;-73
2022/11/22 07:37:05;;;;;;;80.45;40.92;;;;;;;;;;5018838;28;20382;-75
2022/11/22 07:39:31;;;;;;;76.43;39.05;;;;;;;;;;5025074;28;20117;-75
2022/11/22 07:41:57;;;;;;;83.28;39.63;;;;;;;;;;5031239;28;20475;-76
2022/11/22 07:44:23;;;;;;;76.75;40.80;;;;;;;;;;5038615;28;20022;-75
2022/11/22 07:46:49;;;;;;;76.93;40.90;;;;;;;;;;5036068;28;20040;-75
2022/11/22 07:49:15;;;;;;;80.07;39.95;;;;;;;;;;5036383;28;20069;-75
2022/11/22 07:51:41;;;;;;;85.43;40.75;;;;;;;;;;5026624;28;20068;-77
2022/11/22 07:54:07;;;;;;;75.80;39.83;;;;;;;;;;5031053;28;20457;-77
2022/11/22 07:56:33;;;;;;;72.32;38.35;;;;;;;;;;5030265;28;20018;-75
2022/11/22 07:58:59;;;;;;;78.15;40.90;;;;;;;;;;5025215;28;20057;-75
2022/11/22 08:01:25;;;;;;;70.65;37.25;;;;;;;;;;5049771;28;20021;-75
2022/11/22 08:03:51;;;;;;;74.07;39.47;;;;;;;;;;5053238;28;20068;-76
2022/11/22 08:06:17;;;;;;;78.00;39.10;;;;;;;;;;5044175;28;20035;-76
2022/11/22 08:08:43;;;;;;;77.13;40.33;;;;;;;;;;5036613;28;20088;-75
2022/11/22 08:11:10;;;;;;;72.85;38.15;;;;;;;;;;5037142;28;20025;-75
2022/11/22 08:13:36;;;;;;;73.20;38.58;;;;;;;;;;5036853;28;20037;-75
2022/11/22 08:16:03;;;;;;;71.43;39.08;;;;;;;;;;5037167;28;20033;-77
2022/11/22 08:18:29;;;;;;;73.07;39.25;;;;;;;;;;5042898;28;20033;-74
2022/11/22 08:21:06;;;;;;;71.18;38.85;;;;;;;;;;5040269;28;20045;-75
2022/11/22 08:23:32;;;;;;;73.93;37.55;;;;;;;;;;5036288;28;20109;-76
2022/11/22 08:25:59;;;;;;;74.68;39.38;;;;;;;;;;5035354;28;20018;-74
2022/11/22 08:28:25;;;;;;;70.95;37.67;;;;;;;;;;5035475;28;20032;-74
2022/11/22 08:30:51;;;;;;;75.32;37.80;;;;;;;;;;5035444;28;20390;-75
2022/11/22 08:33:17;;;;;;;76.47;39.85;;;;;;;;;;5035779;28;20032;-76
2022/11/22 08:35:43;;;;;;;69.25;37.83;;;;;;;;;;5034954;28;20037;-75
2022/11/22 08:38:09;;;;;;;75.70;38.67;;;;;;;;;;5035593;28;20041;-75
2022/11/22 08:40:35;;;;;;;71.97;38.80;;;;;;;;;;5035196;28;20028;-75
2022/11/22 08:43:00;;;;;;;75.05;38.60;;;;;;;;;;5017830;28;20021;-75
2022/11/22 08:45:26;;;;;;;74.15;39.00;;;;;;;;;;5016355;28;20040;-77
2022/11/22 08:47:52;;;;;;;69.95;36.97;;;;;;;;;;5017114;28;20093;-75
2022/11/22 08:50:19;;;;;;;73.00;37.88;;;;;;;;;;5034810;28;20037;-74
2022/11/22 08:52:45;;;;;;;68.95;37.20;;;;;;;;;;5034190;28;20029;-75
2022/11/22 08:55:10;;;;;;;61.20;34.00;;;;;;;;;;5035513;28;20029;-75
2022/11/22 08:57:36;;;;;;;70.38;36.33;;;;;;;;;;5033969;28;20029;-76
2022/11/22 09:00:03;;;;;;;76.57;38.70;;;;;;;;;;5016625;28;20060;-74
2022/11/22 09:02:29;;;;;;;73.63;38.47;;;;;;;;;;5035543;28;20025;-75
2022/11/22 09:04:55;;;;;;;73.07;39.15;;;;;;;;;;5035455;28;20077;-75
2022/11/22 09:07:21;;;;;;;72.90;37.45;;;;;;;;;;5043427;28;20017;-75
2022/11/22 09:09:47;;;;;;;75.35;38.17;;;;;;;;;;5047893;28;20090;-74
2022/11/22 09:12:13;;;;;;;73.70;39.63;;;;;;;;;;5035821;28;20036;-76
2022/11/22 09:14:39;;;;;;;76.22;38.05;;;;;;;;;;5017802;28;20041;-75
2022/11/22 09:17:05;;;;;;;72.72;37.13;;;;;;;;;;5036101;28;20051;-75
2022/11/22 09:19:31;;;;;;;73.57;37.25;;;;;;;;;;5038178;28;20098;-76
2022/11/22 09:21:57;;;;;;;70.20;37.78;;;;;;;;;;5039875;28;20386;-75
2022/11/22 09:24:23;;;;;;;75.88;38.33;;;;;;;;;;5050950;28;20041;-77
2022/11/22 09:26:49;;;;;;;74.82;39.50;;;;;;;;;;5052313;28;20033;-76
2022/11/22 09:29:15;;;;;;;73.60;39.80;;;;;;;;;;5033365;28;20026;-76
2022/11/22 09:31:41;;;;;;;76.05;37.58;;;;;;;;;;5050196;28;20083;-75
2022/11/22 09:34:07;;;;;;;77.53;38.58;;;;;;;;;;5035920;28;20036;-74
2022/11/22 09:36:33;;;;;;;78.53;38.10;;;;;;;;;;5050743;28;20024;-77
2022/11/22 09:38:59;;;;;;;75.28;39.13;;;;;;;;;;5050087;28;20026;-75
2022/11/22 09:41:25;;;;;;;82.93;40.58;;;;;;;;;;5047477;28;20036;-75
2022/11/22 09:43:57;;;;;;;73.97;37.42;;;;;;;;;;5034953;28;20052;-75
2022/11/22 09:46:31;;;;;;;71.85;38.47;;;;;;;;;;5044042;28;20030;-75
2022/11/22 09:48:57;;;;;;;80.45;38.53;;;;;;;;;;5036091;28;20022;-76
2022/11/22 09:51:27;;;;;;;75.20;39.92;;;;;;;;;;5019908;28;20040;-76
2022/11/22 09:54:03;;;;;;;67.53;36.50;;;;;;;;;;5040526;28;20021;-75
2022/11/22 09:56:30;;;;;;;72.38;38.00;;;;;;;;;;5040188;28;20155;-75
2022/11/22 09:59:03;;;;;;;75.18;38.72;;;;;;;;;;5039116;28;20040;-72
2022/11/22 10:01:44;;;;;;;76.50;38.28;;;;;;;;;;5037607;28;20386;-77
2022/11/22 10:04:25;;;;;;;72.50;37.17;;;;;;;;;;5038952;28;20053;-76
2022/11/22 10:07:17;;;;;;;76.60;38.97;;;;;;;;;;5040307;28;20049;-80
2022/11/22 10:09:43;;;;;;;78.70;39.15;;;;;;;;;;5009988;28;20076;-76
2022/11/22 10:12:19;;;;;;;67.20;35.75;;;;;;;;;;5042061;28;20048;-79
2022/11/22 10:14:48;;;;;;;69.93;36.85;;;;;;;;;;5030236;28;20536;-78
2022/11/22 10:17:20;;;;;;;71.80;37.92;;;;;;;;;;5029158;28;20057;-81
2022/11/22 10:19:57;;;;;;;70.65;37.22;;;;;;;;;;5048013;28;20036;-78
2022/11/22 10:22:24;;;;;;;73.53;37.03;;;;;;;;;;5031829;28;20048;-78
2022/11/22 10:24:50;;;;;;;68.28;36.08;;;;;;;;;;5031553;28;20044;-79
2022/11/22 10:27:16;;;;;;;70.97;36.17;;;;;;;;;;5028848;28;20630;-77
2022/11/22 10:29:46;;;;;;;69.78;36.10;;;;;;;;;;5043658;28;20037;-78
2022/11/22 10:32:12;;;;;;;71.68;36.72;;;;;;;;;;5019930;28;20038;-77
2022/11/22 10:35:27;;;;;;;76.70;36.35;;;;;;;;;;5072479;28;20349;-75
2022/11/22 10:38:11;;;;;;;65.57;35.60;;;;;;;;;;5074582;28;20052;-76
2022/11/22 10:40:54;;;;;;;68.65;36.15;;;;;;;;;;5075489;28;20071;-80
2022/11/22 10:43:35;;;;;;;64.13;35.53;;;;;;;;;;5074267;28;20025;-76
2022/11/22 10:46:06;;;;;;;76.88;38.53;;;;;;;;;;5073399;28;20038;-76
2022/11/22 10:48:38;;;;;;;67.28;37.08;;;;;;;;;;5088384;28;20013;-77
2022/11/22 10:51:13;;;;;;;68.82;37.28;;;;;;;;;;5094587;28;20025;-78
2022/11/22 10:53:58;;;;;;;71.80;37.33;;;;;;;;;;5093312;28;20033;-77
2022/11/22 10:56:49;;;;;;;77.90;39.33;;;;;;;;;;5084152;28;20040;-77
2022/11/22 10:59:41;;;;;;;74.38;38.65;;;;;;;;;;5073948;28;20021;-77
2022/11/22 11:02:26;;;;;;;72.85;37.15;;;;;;;;;;5064139;28;20112;-76
2022/11/22 11:04:54;;;;;;;68.63;37.75;;;;;;;;;;5071530;28;20024;-77
2022/11/22 11:07:21;;;;;;;72.88;38.50;;;;;;;;;;5069396;28;20119;-78
2022/11/22 11:09:48;;;;;;;70.35;37.42;;;;;;;;;;5072440;28;20079;-78
2022/11/22 11:12:18;;;;;;;75.70;39.70;;;;;;;;;;5071163;28;20060;-77
2022/11/22 11:14:46;;;;;;;75.57;38.95;;;;;;;;;;5075986;28;20025;-78
2022/11/22 11:17:22;;;;;;;72.22;37.58;;;;;;;;;;5074125;28;20385;-77
2022/11/22 11:19:49;;;;;;;75.65;38.60;;;;;;;;;;5072253;28;20044;-78
2022/11/22 11:22:17;;;;;;;76.20;39.10;;;;;;;;;;5070675;28;20056;-74
2022/11/22 11:24:43;;;;;;;72.90;38.65;;;;;;;;;;5071483;28;20024;-75
2022/11/22 11:27:10;;;;;;;73.07;37.95;;;;;;;;;;5069532;28;20442;-76
2022/11/22 11:29:42;;;;;;;73.40;39.03;;;;;;;;;;5071215;28;20044;-76
2022/11/22 11:32:21;;;;;;;71.72;39.00;;;;;;;;;;5070674;28;20092;-75
2022/11/22 11:35:04;;;;;;;69.57;38.50;;;;;;;;;;5070996;28;20036;-77
2022/11/22 11:37:35;;;;;;;75.93;37.88;;;;;;;;;;5070607;28;20074;-76
2022/11/22 11:40:01;;;;;;;73.15;38.15;;;;;;;;;;5070579;28;20492;-76
2022/11/22 11:42:31;;;;;;;75.57;39.30;;;;;;;;;;5070643;28;20080;-76
2022/11/22 11:45:20;;;;;;;79.78;38.72;;;;;;;;;;5090905;22;20132;-73
2022/11/22 11:47:46;;;;;;;77.80;38.83;;;;;;;;;;5050028;28;20049;-75
2022/11/22 11:50:19;;;;;;;78.72;39.88;;;;;;;;;;5062837;28;20037;-74
2022/11/22 11:52:54;;;;;;;77.13;39.00;;;;;;;;;;5039770;28;20052;-75
2022/11/22 11:55:20;;;;;;;;;;;;;;;;;;5057640;28;20084;-73
2022/11/22 11:57:46;;;;;;;73.93;38.88;;;;;;;;;;5057016;28;19909;-74
2022/11/22 12:00:35;;;;;;;73.75;39.40;;;;;;;;;;5059423;28;20029;-74
2022/11/22 12:03:04;;;;;;;78.70;39.80;;;;;;;;;;5042968;28;20044;-73
2022/11/22 12:05:31;;;;;;;76.47;40.22;;;;;;;;;;5042833;28;20033;-73
2022/11/22 12:07:58;;;;;;;85.05;40.83;;;;;;;;;;5065452;28;20041;-74
2022/11/22 12:10:42;;;;;;;77.97;40.05;;;;;;;;;;5041958;28;20048;-73
2022/11/22 12:13:23;;;;;;;74.15;38.80;;;;;;;;;;5056289;28;20025;-73
2022/11/22 12:15:50;;;;;;;72.90;38.63;;;;;;;;;;5038943;28;20386;-73
2022/11/22 12:18:24;;;;;;;78.60;37.75;;;;;;;;;;5060940;28;20083;-74
2022/11/22 12:21:07;;;;;;;78.40;38.83;;;;;;;;;;5056818;28;20021;-73
2022/11/22 12:23:38;;;;;;;71.72;37.60;;;;;;;;;;5056387;28;20036;-73
2022/11/22 12:26:04;;;;;;;73.22;37.80;;;;;;;;;;5056546;28;20036;-74
2022/11/22 12:28:31;;;;;;;70.82;37.70;;;;;;;;;;5038006;28;20021;-73
2022/11/22 12:31:02;;;;;;;74.22;37.67;;;;;;;;;;5056108;28;20089;-73
2022/11/22 12:33:40;;;;;;;72.35;37.45;;;;;;;;;;5038879;28;20033;-74
2022/11/22 12:36:10;;;;;;;68.28;36.97;;;;;;;;;;5058012;28;20393;-73
2022/11/22 12:38:39;;;;;;;74.40;36.78;;;;;;;;;;5041080;28;20111;-73
2022/11/22 12:41:09;;;;;;;71.28;37.80;;;;;;;;;;5056136;28;20100;-74
2022/11/22 12:43:41;;;;;;;79.38;37.67;;;;;;;;;;5039576;28;20021;-73
2022/11/22 12:46:17;;;;;;;66.60;35.30;;;;;;;;;;5056401;28;20032;-74
2022/11/22 12:48:45;;;;;;;67.43;35.88;;;;;;;;;;5074672;28;20029;-74
2022/11/22 12:51:35;;;;;;;66.88;36.90;;;;;;;;;;5055983;28;20044;-74
2022/11/22 12:54:02;;;;;;;71.90;36.55;;;;;;;;;;5040976;28;20069;-74
2022/11/22 12:56:58;;;;;;;68.60;36.08;;;;;;;;;;5056111;28;20112;-73
2022/11/22 12:59:41;;;;;;;67.63;36.50;;;;;;;;;;5031124;28;20059;-74
2022/11/22 13:02:13;;;;;;;71.50;38.15;;;;;;;;;;5058430;28;20075;-71
2022/11/22 13:04:52;;;;;;;79.75;38.75;;;;;;;;;;5056841;28;20024;-74
2022/11/22 13:07:37;;;;;;;72.65;36.67;;;;;;;;;;5054162;28;20039;-75
2022/11/22 13:10:21;;;;;;;64.63;34.58;;;;;;;;;;5056351;28;20389;-74
2022/11/22 13:12:48;;;;;;;68.40;36.47;;;;;;;;;;5045039;28;20060;-73
2022/11/22 13:15:17;;;;;;;64.70;34.35;;;;;;;;;;5057321;28;20421;-74
2022/11/22 13:17:43;;;;;;;72.20;36.90;;;;;;;;;;5056788;28;20458;-74
2022/11/22 13:20:16;;;;;;;68.68;35.28;;;;;;;;;;5055452;28;20378;-74
2022/11/22 13:22:45;;;;;;;69.35;34.88;;;;;;;;;;5038012;28;20021;-74
2022/11/22 13:25:26;;;;;;;68.00;35.88;;;;;;;;;;5058841;28;20616;-74
2022/11/22 13:27:53;;;;;;;69.43;36.47;;;;;;;;;;5056116;28;20232;-74
2022/11/22 13:30:24;;;;;;;68.78;35.85;;;;;;;;;;5055497;28;20029;-74
2022/11/22 13:32:51;;;;;;;72.28;36.38;;;;;;;;;;5037764;28;20021;-74
2022/11/22 13:35:34;;;;;;;68.20;35.38;;;;;;;;;;5039503;28;20075;-74
2022/11/22 13:38:17;;;;;;;64.20;34.28;;;;;;;;;;5056008;28;20052;-73
2022/11/22 13:40:50;;;;;;;71.28;34.25;;;;;;;;;;5056324;28;20025;-73
2022/11/22 13:43:16;;;;;;;70.65;37.10;;;;;;;;;;5054988;28;20051;-73
2022/11/22 13:45:59;;;;;;;70.65;38.00;;;;;;;;;;5054041;28;20037;-75
2022/11/22 13:48:40;;;;;;;65.68;36.05;;;;;;;;;;5055949;28;20024;-73
2022/11/22 13:51:08;;;;;;;71.38;35.53;;;;;;;;;;5059608;28;20469;-73
2022/11/22 13:53:35;;;;;;;76.93;37.60;;;;;;;;;;5062302;28;20037;-74
2022/11/22 13:56:20;;;;;;;73.25;37.75;;;;;;;;;;5056489;28;20025;-74
2022/11/22 13:58:53;;;;;;;76.60;38.20;;;;;;;;;;5055664;28;20481;-74
2022/11/22 14:01:35;;;;;;;73.80;35.97;;;;;;;;;;5055754;28;20025;-75
2022/11/22 14:04:18;;;;;;;72.15;36.45;;;;;;;;;;5054671;28;20346;-74
2022/11/22 14:06:50;;;;;;;71.47;38.00;;;;;;;;;;5054693;28;20487;-74
2022/11/22 14:09:35;;;;;;;76.95;36.65;;;;;;;;;;5060997;28;20033;-74
2022/11/22 14:12:04;;;;;;;71.18;36.33;;;;;;;;;;5061062;28;20021;-74
2022/11/22 14:14:45;;;;;;;72.22;37.38;;;;;;;;;;5058256;28;20029;-74
2022/11/22 14:17:11;;;;;;;76.30;38.17;;;;;;;;;;5054404;28;20025;-75
2022/11/22 14:20:00;;;;;;;72.40;37.40;;;;;;;;;;5054934;28;20029;-73
2022/11/22 14:22:26;;;;;;;72.60;36.60;;;;;;;;;;5054862;28;20030;-72
2022/11/22 14:25:00;;;;;;;69.03;37.08;;;;;;;;;;5053887;28;20561;-74
2022/11/22 14:27:26;;;;;;;;;;;;;;;;;;5054216;28;20068;-73
2022/11/22 14:30:03;;;;;;;73.07;38.15;;;;;;;;;;5053831;28;19904;-75
2022/11/22 14:32:51;;;;;;;73.82;37.10;;;;;;;;;;5035319;28;20020;-74
2022/11/22 14:35:19;;;;;;;78.63;37.90;;;;;;;;;;5039415;28;20053;-75
2022/11/22 14:37:57;;;;;;;80.05;39.15;;;;;;;;;;5058244;28;20106;-74
2022/11/22 14:40:29;;;;;;;76.03;37.28;;;;;;;;;;5055689;28;20025;-74